Latest Weather Observations for Cape Byron

IDN60801

Issued at 12:03 pm EDT Tuesday 20 October 2020 (issued every 10 minutes, with the page automatically refreshed every 10 minutes)

About weather observations | Map of weather stations | Latest weather observations for NSW | Other Formats
Station Details ID: 058216 Name: CAPE BYRON AWS Lat: -28.64 Lon: 153.64 Height: 95.0 m
Data from the previous 72 hours. | See also: Recent months at Cape Byron
Date/Time
EDT
Temp
°C
App
Temp
°C
Dew
Point
°C
Rel
Hum
%
Delta-T
°C
Wind Press
QNH
hPa
Press
MSL
hPa
Rain since
9am
mm
Dir  Spd
km/h
Gust
km/h
Spd
kts
Gust
kts
20/12:00pm 20.9 15.6 14.3 66 3.9 S 35 43 19 23 1018.1 1017.8 0.0
20/11:30am 21.0 15.9 14.9 68 3.6 SSW 35 43 19 23 1018.3 1018.0 0.0
20/11:00am 20.5 15.4 14.8 70 3.3 SSW 35 43 19 23 1018.4 1018.1 0.0
20/10:30am 20.6 15.9 14.9 70 3.4 SSW 33 41 18 22 1018.4 1018.1 0.0
20/10:00am 20.3 15.5 14.7 70 3.3 SSW 33 41 18 22 1018.2 1017.9 0.0
20/09:30am 20.1 16.4 15.1 73 3.0 SSW 28 37 15 20 1018.2 1017.9 0.0
20/09:00am 19.3 15.9 14.8 75 2.6 SSW 26 37 14 20 1018.1 1017.8 0.0
20/08:30am 18.6 15.2 14.7 78 2.3 SW 26 35 14 19 1017.9 1017.6 0.0
20/08:00am 17.7 15.0 15.7 88 1.2 SW 24 35 13 19 1017.6 1017.2 0.0
20/07:30am 16.9 14.2 16.7 99 0.1 SW 26 37 14 20 1017.3 1016.9 0.0
20/07:00am 16.3 12.7 16.3 100 0.0 SW 30 43 16 23 1016.7 1016.3 0.0
20/06:30am 16.4 11.9 16.4 100 0.0 SW 35 43 19 23 1016.4 1016.0 0.0
20/06:00am 16.3 12.7 16.3 100 0.0 SW 30 39 16 21 1016.0 1015.7 0.0
20/05:30am 16.1 12.8 16.1 100 0.0 SW 28 37 15 20 1015.8 1015.5 0.0
20/05:00am 16.0 12.7 16.0 100 0.0 SW 28 35 15 19 1015.3 1015.0 0.0
20/04:30am 16.2 - - - - SW 28 35 15 19 1015.2 1014.9 0.0
20/04:00am 16.1 - - - - SW 28 37 15 20 1015.1 1014.8 0.0
20/03:30am 16.3 - - - - SW 28 33 15 18 1015.4 1015.1 0.0
20/03:00am 16.5 13.4 16.5 100 0.0 SW 28 35 15 19 1015.5 1015.2 0.0
20/02:30am 16.7 13.7 16.7 100 0.0 SW 28 33 15 18 1015.7 1015.4 0.0
20/02:00am 17.0 - 17.1 - - SW 24 30 13 16 1016.0 1015.7 0.0
20/01:30am 17.7 16.2 17.7 100 0.0 SW 22 28 12 15 1016.1 1015.8 0.0
20/01:00am 18.1 16.0 18.1 100 0.0 SSW 26 35 14 19 1016.3 1015.9 0.0
20/12:30am 18.1 16.0 18.1 100 0.0 SSW 26 35 14 19 1016.7 1016.3 0.0
20/12:00am 18.0 13.8 18.0 100 0.0 SSW 37 50 20 27 1016.7 1016.3 0.0
 
Date/Time
EDT
Temp
°C
App
Temp
°C
Dew
Point
°C
Rel
Hum
%
Delta-T
°C
Wind Press
QNH
hPa
Press
MSL
hPa
Rain since
9am
mm
Dir  Spd
km/h
Gust
km/h
Spd
kts
Gust
kts
19/11:30pm 18.1 13.5 18.1 100 0.0 SSW 39 46 21 25 1016.7 1016.3 0.0
19/11:00pm 18.1 - 18.2 - - SSW 44 57 24 31 1016.4 1016.0 0.0
19/10:30pm 18.0 12.1 18.0 100 0.0 SSW 46 56 25 30 1016.5 1016.1 0.0
19/10:24pm 18.0 - - - - SSW 35 54 19 29 1016.6 1016.2 0.0
19/10:00pm 18.1 - - - - SSW 35 44 19 24 1016.4 1016.0 0.0
19/09:30pm 18.4 - - - - SSW 32 41 17 22 1016.0 1015.7 0.0
19/09:00pm 18.2 - - - - SSW 32 43 17 23 1015.7 1015.4 0.0
19/08:30pm 18.2 14.4 18.2 100 0.0 SSW 35 50 19 27 1015.1 1014.8 0.0
19/08:00pm 18.8 15.3 18.8 100 0.0 SSW 35 44 19 24 1014.6 1014.3 0.0
19/07:30pm 19.1 15.7 19.1 100 0.0 SSW 35 46 19 25 1014.0 1013.7 0.0
19/07:02pm 19.2 14.1 19.0 99 0.1 SSW 44 63 24 34 1013.4 1013.1 0.0
19/07:00pm 19.2 13.5 18.5 96 0.4 SSW 46 63 25 34 1013.3 1013.0 0.0
19/06:30pm 19.7 14.0 17.3 86 1.5 SSW 43 61 23 33 1012.6 1012.3 0.0
19/06:05pm 20.2 14.8 17.0 82 2.0 SSW 41 59 22 32 1012.3 1012.0 0.0
19/06:00pm 20.6 15.4 16.6 78 2.4 SSW 39 54 21 29 1012.2 1011.9 0.0
19/05:30pm 20.8 14.8 16.8 78 2.4 SSW 44 59 24 32 1011.7 1011.4 0.0
19/05:25pm 20.8 15.2 16.6 77 2.6 SSW 41 59 22 32 1011.6 1011.3 0.0
19/05:00pm 20.3 14.1 17.3 83 1.8 S 46 57 25 31 1011.4 1011.1 0.0
19/04:30pm 20.5 15.5 17.9 85 1.6 SSW 41 61 22 33 1011.6 1011.3 0.0
19/04:23pm 20.8 14.9 16.8 78 2.4 SSW 43 61 23 33 1011.5 1011.2 0.0
19/04:00pm 20.4 13.9 16.6 79 2.3 S 46 57 25 31 1011.4 1011.1 0.0
19/03:30pm 21.0 17.5 16.6 76 2.7 S 30 41 16 22 1011.4 1011.1 0.0
19/03:00pm 21.6 18.9 15.7 69 3.5 S 24 32 13 17 1011.7 1011.4 0.0
19/02:30pm 20.1 14.8 15.3 74 2.8 S 37 48 20 26 1011.6 1011.3 0.0
19/02:00pm 20.6 18.2 18.2 86 1.5 S 28 35 15 19 1011.8 1011.5 0.0
19/01:30pm 20.2 18.1 17.2 83 1.8 S 24 32 13 17 1011.9 1011.6 0.0
19/01:00pm 20.9 19.2 18.1 84 1.7 S 24 35 13 19 1012.3 1012.0 0.0
19/12:30pm 19.4 17.5 16.8 85 1.6 S 22 32 12 17 1012.5 1012.2 0.0
19/12:00pm 20.9 18.1 16.3 75 2.8 SSW 26 43 14 23 1012.7 1012.4 0.0
19/11:30am 21.9 19.1 13.3 58 5.0 WSW 20 32 11 17 1012.8 1012.5 0.0
19/11:00am 21.6 19.6 13.8 61 4.5 WSW 17 28 9 15 1012.8 1012.5 0.0
19/10:30am 20.5 18.6 14.2 67 3.7 SW 17 22 9 12 1012.9 1012.6 0.0
19/10:00am 20.5 21.4 16.5 78 2.4 WSW 7 15 4 8 1012.9 1012.6 0.0
19/09:30am 20.3 22.7 20.1 99 0.1 NNW 7 11 4 6 1012.9 1012.6 0.0
19/09:00am 19.2 21.2 19.2 100 0.0 NNW 7 11 4 6 1012.8 1012.5 8.6
19/08:30am 18.3 - - - - NW 7 9 4 5 1012.7 1012.4 8.6
19/08:00am 17.5 - - - - W 9 13 5 7 1012.6 1012.3 8.6
19/07:30am 17.0 - - - - SW 9 13 5 7 1012.4 1012.1 8.6
19/07:00am 16.7 - - - - SW 13 17 7 9 1012.5 1012.2 8.6
19/06:30am 16.4 - - - - SW 9 11 5 6 1012.1 1011.8 8.6
19/06:00am 16.4 - - - - SW 9 13 5 7 1011.8 1011.5 8.4
19/05:30am 16.7 - - - - SSW 13 19 7 10 1011.1 1010.8 8.4
19/05:00am 17.2 - - - - SSW 24 32 13 17 1010.8 1010.5 8.4
19/04:30am 17.5 - - - - E 20 30 11 16 1010.1 1009.8 8.4
19/04:00am 17.2 - - - - S 20 24 11 13 1011.0 1010.7 8.0
19/03:30am 17.4 - - - - S 9 13 5 7 1012.0 1011.7 7.2
19/03:00am 17.5 - - - - S 15 20 8 11 1011.9 1011.6 6.4
19/02:30am 17.3 - - - - SSW 24 32 13 17 1012.0 1011.7 5.8
19/02:00am 18.2 16.2 18.2 100 0.0 SW 26 39 14 21 1012.7 1012.4 4.0
19/01:30am 19.3 17.8 18.5 95 0.5 SW 24 33 13 18 1012.8 1012.5 0.0
19/01:00am 19.8 19.6 18.6 93 0.8 WSW 17 22 9 12 1013.0 1012.7 0.0
19/12:30am 19.7 20.7 18.7 94 0.6 SW 11 15 6 8 1013.2 1012.9 0.0
19/12:00am 19.8 20.5 19.6 99 0.1 SSW 15 19 8 10 1013.4 1013.1 0.0
 
Date/Time
EDT
Temp
°C
App
Temp
°C
Dew
Point
°C
Rel
Hum
%
Delta-T
°C
Wind Press
QNH
hPa
Press
MSL
hPa
Rain since
9am
mm
Dir  Spd
km/h
Gust
km/h
Spd
kts
Gust
kts
18/11:30pm 20.0 19.8 19.8 99 0.1 SW 20 26 11 14 1013.4 1013.1 0.0
18/11:00pm 20.3 21.3 20.3 100 0.0 SSW 15 20 8 11 1013.7 1013.4 0.0
18/10:30pm 20.5 20.8 20.3 99 0.1 SSW 19 26 10 14 1013.6 1013.3 0.0
18/10:00pm 20.7 21.8 18.8 89 1.2 NW 11 28 6 15 1013.5 1013.2 0.0
18/09:30pm 20.9 21.9 18.7 87 1.4 NW 11 19 6 10 1013.2 1012.9 0.0
18/09:00pm 21.0 20.9 18.8 87 1.4 NNW 17 26 9 14 1012.6 1012.3 0.0
18/08:30pm 20.8 18.7 20.6 99 0.1 NNW 32 43 17 23 1011.7 1011.4 0.0
18/08:00pm 20.9 18.4 19.7 93 0.8 NNW 32 43 17 23 1011.5 1011.2 0.0
18/07:30pm 21.1 19.1 19.2 89 1.2 N 28 39 15 21 1011.5 1011.2 0.0
18/07:00pm 21.0 18.8 18.6 86 1.5 NNW 28 41 15 22 1011.4 1011.1 0.0
18/06:30pm 21.1 18.2 17.9 82 2.0 N 30 43 16 23 1011.2 1010.9 0.0
18/06:00pm 21.4 18.9 18.0 81 2.1 NNW 28 39 15 21 1011.1 1010.8 0.0
18/05:30pm 22.3 19.3 17.7 75 2.9 N 30 41 16 22 1010.8 1010.5 0.0
18/05:00pm 22.5 19.4 17.6 74 3.0 N 30 43 16 23 1010.6 1010.3 0.0
18/04:30pm 22.9 19.6 18.0 74 3.1 N 32 43 17 23 1010.3 1010.0 0.0
18/04:00pm 23.1 19.8 18.0 73 3.2 N 32 43 17 23 1010.7 1010.4 0.0
18/03:30pm 22.8 18.5 17.7 73 3.2 N 37 52 20 28 1010.7 1010.4 0.0
18/03:00pm 22.5 17.7 17.6 74 3.0 N 39 57 21 31 1010.8 1010.5 0.0
18/02:57pm 22.3 17.4 17.4 74 3.0 N 39 57 21 31 1010.8 1010.5 0.0
18/02:30pm 22.6 18.2 17.5 73 3.2 N 37 54 20 29 1011.1 1010.8 0.0
18/02:08pm 23.1 18.5 18.0 73 3.2 N 39 59 21 32 1011.3 1011.0 0.0
18/02:00pm 23.0 18.7 17.7 72 3.3 N 37 52 20 28 1011.4 1011.1 0.0
18/01:40pm 23.3 18.3 17.1 68 3.8 N 39 59 21 32 1011.5 1011.2 0.0
18/01:30pm 23.2 18.2 17.0 68 3.8 N 39 54 21 29 1011.6 1011.3 0.0
18/01:01pm 23.0 17.1 16.8 68 3.8 N 43 61 23 33 1012.0 1011.7 0.0
18/01:00pm 23.0 17.4 16.5 67 4.0 N 41 57 22 31 1012.1 1011.8 0.0
18/12:30pm 22.8 17.4 17.0 70 3.6 N 41 61 22 33 1012.5 1012.2 0.0
18/12:00pm 22.8 17.9 17.3 71 3.4 N 39 59 21 32 1012.8 1012.5 0.0
18/11:55am 22.7 17.8 17.2 71 3.4 N 39 59 21 32 1012.9 1012.6 0.0
18/11:30am 22.8 18.4 17.5 72 3.3 N 37 50 20 27 1013.6 1013.3 0.0
18/11:07am 22.9 18.8 17.4 71 3.4 N 35 54 19 29 1013.8 1013.5 0.0
18/11:00am 22.8 18.7 17.3 71 3.4 N 35 46 19 25 1013.9 1013.6 0.0
18/10:30am 23.3 21.2 17.1 68 3.8 N 24 37 13 20 1014.3 1014.0 0.0
18/10:00am 23.2 20.5 15.5 62 4.6 NNW 24 35 13 19 1014.5 1014.2 0.0
18/09:30am 22.1 17.9 15.7 67 3.9 NNW 32 44 17 24 1014.2 1013.9 0.0
18/09:00am 21.5 17.1 15.6 69 3.5 NNW 33 46 18 25 1014.4 1014.1 0.0
18/08:30am 21.1 16.9 15.6 71 3.3 NNW 32 46 17 25 1014.3 1014.0 0.0
18/08:00am 20.7 16.6 15.0 70 3.4 NNW 30 43 16 23 1014.4 1014.1 0.0
18/07:30am 20.0 16.0 15.2 74 2.8 N 30 41 16 22 1014.2 1013.9 0.0
18/07:00am 19.6 15.2 15.7 78 2.3 N 33 48 18 26 1013.8 1013.5 0.0
18/06:30am 19.5 15.2 16.0 80 2.1 NNW 33 48 18 26 1013.4 1013.1 0.0
18/06:00am 19.5 15.4 16.5 83 1.8 N 33 48 18 26 1013.1 1012.8 0.0
18/05:37am 19.7 15.4 16.9 84 1.7 N 35 54 19 29 1012.9 1012.6 0.0
18/05:30am 19.7 14.9 16.5 82 1.9 N 37 54 20 29 1012.8 1012.5 0.0
18/05:00am 19.8 15.4 16.6 82 1.9 NNW 35 52 19 28 1012.8 1012.5 0.0
18/04:31am 19.8 15.8 16.6 82 1.9 NNW 33 52 18 28 1012.7 1012.4 0.0
18/04:30am 19.8 15.8 16.8 83 1.8 NNW 33 46 18 25 1012.7 1012.4 0.0
18/04:00am 19.9 16.3 17.1 84 1.7 NNW 32 50 17 27 1012.9 1012.6 0.0
18/03:54am 19.9 16.3 17.3 85 1.6 NNW 32 50 17 27 1012.9 1012.6 0.0
18/03:30am 19.8 16.3 17.4 86 1.5 NNW 32 46 17 25 1013.1 1012.8 0.0
18/03:00am 19.9 16.1 17.3 85 1.6 NNW 33 52 18 28 1013.2 1012.9 0.0
18/02:53am 19.9 16.1 17.3 85 1.6 NNW 33 52 18 28 1013.2 1012.9 0.0
18/02:30am 19.9 15.6 16.9 83 1.8 NNW 35 52 19 28 1013.5 1013.2 0.0
18/02:00am 19.9 15.9 16.7 82 1.9 NNW 33 48 18 26 1013.8 1013.5 0.0
18/01:35am 19.9 15.5 16.7 82 1.9 NNW 35 54 19 29 1014.1 1013.8 0.0
18/01:30am 20.0 15.7 16.8 82 1.9 NNW 35 50 19 27 1014.3 1014.0 0.0
18/01:00am 20.1 16.4 16.9 82 1.9 NNW 32 44 17 24 1014.9 1014.6 0.0
18/12:30am 20.2 15.9 17.0 82 2.0 NNW 35 44 19 24 1015.1 1014.8 0.0
18/12:00am 20.1 16.8 16.9 82 1.9 NNW 30 43 16 23 1015.5 1015.2 0.0
 
Date/Time
EDT
Temp
°C
App
Temp
°C
Dew
Point
°C
Rel
Hum
%
Delta-T
°C
Wind Press
QNH
hPa
Press
MSL
hPa
Rain since
9am
mm
Dir  Spd
km/h
Gust
km/h
Spd
kts
Gust
kts
17/11:30pm 20.1 17.2 17.1 83 1.8 NNW 28 39 15 21 1015.7 1015.4 0.0
17/11:23pm 20.2 17.4 17.4 84 1.7 NNW 28 46 15 25 1015.7 1015.4 0.0
17/11:00pm 20.3 17.2 17.5 84 1.7 NNW 30 44 16 24 1015.7 1015.4 0.0
17/10:30pm 20.5 17.5 17.7 84 1.7 NNW 30 43 16 23 1015.8 1015.5 0.0
17/10:00pm 20.6 16.8 17.2 81 2.1 NNW 33 46 18 25 1015.9 1015.6 0.0
17/09:45pm 20.7 17.1 17.1 80 2.2 NNW 32 50 17 27 1015.8 1015.5 0.0
17/09:30pm 20.8 17.1 17.4 81 2.1 NNW 33 46 18 25 1015.8 1015.5 0.0
17/09:00pm 20.9 17.1 17.3 80 2.2 N 33 46 18 25 1015.6 1015.3 0.0
17/08:30pm 21.0 17.0 16.6 76 2.7 N 33 48 18 26 1015.5 1015.2 0.0
17/08:00pm 21.1 17.2 16.9 77 2.6 N 33 48 18 26 1015.4 1015.1 0.0
17/07:46pm 21.1 15.9 16.5 75 2.8 N 39 57 21 31 1015.0 1014.7 0.0
17/07:30pm 21.2 16.6 17.2 78 2.5 N 37 50 20 27 1015.2 1014.9 0.0
17/07:20pm 21.2 16.0 16.6 75 2.8 N 39 57 21 31 1015.3 1015.0 0.0
17/07:00pm 21.4 17.4 17.6 79 2.4 N 35 46 19 25 1015.4 1015.1 0.0
17/06:30pm 21.8 17.6 17.2 75 2.8 N 35 48 19 26 1015.2 1014.9 0.0
17/06:00pm 22.2 17.2 17.1 73 3.1 N 39 54 21 29 1014.9 1014.6 0.0
17/05:50pm 22.1 17.8 16.8 72 3.2 N 35 54 19 29 1014.9 1014.6 0.0
17/05:30pm 22.4 17.6 16.7 70 3.5 N 37 52 20 28 1014.8 1014.5 0.0
17/05:03pm 22.4 18.3 16.4 69 3.7 N 33 52 18 28 1014.6 1014.3 0.0
17/05:00pm 22.4 18.4 16.7 70 3.5 N 33 46 18 25 1014.6 1014.3 0.0
17/04:30pm 22.8 18.8 16.6 68 3.8 N 33 46 18 25 1014.6 1014.3 0.0
17/04:09pm 22.9 19.3 16.2 66 4.1 N 30 48 16 26 1014.8 1014.5 0.0
17/04:00pm 23.0 19.0 16.3 66 4.1 NNE 32 44 17 24 1014.8 1014.5 0.0
17/03:30pm 23.2 18.7 16.3 65 4.2 N 35 50 19 27 1015.2 1014.9 0.0
17/03:00pm 23.0 18.8 16.3 66 4.1 N 33 48 18 26 1015.5 1015.2 0.0
17/02:30pm 23.6 20.2 15.9 62 4.7 NNE 28 39 15 21 1015.8 1015.5 0.0
17/02:00pm 23.3 20.6 16.6 66 4.1 NNE 26 39 14 21 1016.4 1016.0 0.0
17/01:30pm 23.5 21.1 16.3 64 4.4 NNE 24 35 13 19 1016.8 1016.4 0.0
17/01:00pm 23.6 20.3 16.1 62 4.6 NNE 28 39 15 21 1017.2 1016.8 0.0
17/12:30pm 23.7 21.5 16.0 62 4.7 NNE 22 32 12 17 1017.6 1017.2 0.0

Other formats

Comma delimited format used in spreadsheet applications
http://www.bom.gov.au/fwo/IDN60801/IDN60801.94599.axf

JavaScript Object Notation format (JSON) in row-major order
http://www.bom.gov.au/fwo/IDN60801/IDN60801.94599.json

Data quality

Most of these data are generated automatically and are frequently updated. Quality checks on data are not normally performed. It is possible for incorrect values to appear. Refer to information at About Latest Weather Observations and please check the disclaimer before using these data.